createdAt,value
2022-10-12T00:00:19.136Z,70.80
2022-10-12T00:02:45.728Z,70.89
2022-10-12T00:05:12.644Z,71.05
2022-10-12T00:07:40.075Z,71.28
2022-10-12T00:10:07.329Z,71.36
2022-10-12T00:12:34.241Z,71.64
2022-10-12T00:15:00.914Z,71.67
2022-10-12T00:17:27.600Z,71.79
2022-10-12T00:19:54.445Z,72.08
2022-10-12T00:22:21.130Z,72.21
2022-10-12T00:24:47.859Z,72.17
2022-10-12T00:27:14.517Z,72.19
2022-10-12T00:29:41.249Z,72.34
2022-10-12T00:32:07.871Z,72.53
2022-10-12T00:34:34.750Z,72.66
2022-10-12T00:37:01.356Z,72.85
2022-10-12T00:39:28.098Z,73.02
2022-10-12T00:41:54.752Z,73.21
2022-10-12T00:44:35.263Z,73.36
2022-10-12T00:47:05.311Z,73.59
2022-10-12T00:49:34.395Z,73.77
2022-10-12T00:52:03.149Z,73.85
2022-10-12T00:54:34.869Z,73.92
2022-10-12T00:57:02.522Z,74.00
2022-10-12T00:59:32.471Z,74.16
2022-10-12T01:01:59.194Z,74.22
2022-10-12T01:04:25.875Z,74.32
2022-10-12T01:06:52.632Z,74.32
2022-10-12T01:09:19.905Z,74.39
2022-10-12T01:11:46.600Z,74.37
2022-10-12T01:14:13.276Z,74.41
2022-10-12T01:17:04.381Z,74.38
2022-10-12T01:19:52.649Z,74.76
2022-10-12T01:22:23.100Z,75.07
2022-10-12T01:24:54.305Z,74.94
2022-10-12T01:27:23.732Z,75.14
2022-10-12T01:30:09.791Z,75.60
2022-10-12T01:33:00.900Z,75.71
2022-10-12T01:35:49.305Z,75.98
2022-10-12T01:38:50.217Z,76.20
2022-10-12T01:41:32.698Z,76.71
2022-10-12T01:43:59.389Z,76.78
2022-10-12T01:46:26.026Z,76.80
2022-10-12T01:49:00.480Z,76.86
2022-10-12T01:52:08.598Z,77.08
2022-10-12T01:54:43.412Z,77.22
2022-10-12T01:57:18.202Z,77.50
2022-10-12T01:59:52.713Z,77.55
2022-10-12T02:02:40.739Z,77.42
2022-10-12T02:05:07.368Z,77.59
2022-10-12T02:07:49.359Z,77.74
2022-10-12T02:10:27.855Z,77.93
2022-10-12T02:12:54.719Z,78.18
2022-10-12T02:15:21.373Z,78.26
2022-10-12T02:17:48.383Z,78.12
2022-10-12T02:20:16.642Z,78.29
2022-10-12T02:22:43.294Z,78.45
2022-10-12T02:25:11.991Z,78.66
2022-10-12T02:27:40.188Z,78.84
2022-10-12T02:30:07.842Z,78.92
2022-10-12T02:32:38.599Z,79.04
2022-10-12T02:35:09.604Z,79.19
2022-10-12T02:37:37.395Z,79.23
2022-10-12T02:40:11.761Z,79.62
2022-10-12T02:43:08.324Z,79.37
2022-10-12T02:45:26.219Z,79.35
2022-10-12T02:47:53.535Z,79.67
2022-10-12T02:50:20.377Z,79.73
2022-10-12T02:52:46.964Z,80.27
2022-10-12T02:55:13.637Z,80.39
2022-10-12T02:57:40.455Z,80.91
2022-10-12T03:00:07.738Z,81.03
2022-10-12T03:02:34.395Z,81.09
2022-10-12T03:05:01.070Z,81.36
2022-10-12T03:07:27.834Z,81.38
2022-10-12T03:09:54.552Z,81.57
2022-10-12T03:12:21.217Z,81.74
2022-10-12T03:14:47.926Z,82.10
2022-10-12T03:17:14.579Z,82.47
2022-10-12T03:19:41.332Z,82.68
2022-10-12T03:22:07.938Z,83.16
2022-10-12T03:24:34.612Z,82.98
2022-10-12T03:27:01.306Z,82.90
2022-10-12T03:29:28.033Z,82.70
2022-10-12T03:31:54.611Z,82.66
2022-10-12T03:34:21.306Z,82.38
2022-10-12T03:36:47.962Z,82.07
2022-10-12T03:39:14.800Z,82.28
2022-10-12T03:41:41.383Z,82.05
2022-10-12T03:44:08.038Z,82.00
2022-10-12T03:46:34.730Z,82.00
2022-10-12T03:49:01.499Z,82.17
2022-10-12T03:51:28.103Z,82.56
2022-10-12T03:53:54.763Z,82.86
2022-10-12T03:56:21.433Z,83.17
2022-10-12T03:58:48.113Z,83.30
2022-10-12T04:01:14.889Z,83.43
2022-10-12T04:03:41.517Z,83.31
2022-10-12T04:06:08.246Z,83.52
2022-10-12T04:11:24.617Z,83.73
2022-10-12T04:13:51.317Z,83.75
2022-10-12T04:16:18.088Z,83.88
2022-10-12T04:18:44.752Z,84.06
2022-10-12T04:21:13.823Z,84.17
2022-10-12T04:23:41.261Z,84.39
2022-10-12T04:26:08.001Z,84.52
2022-10-12T04:28:34.714Z,84.59
2022-10-12T04:31:01.431Z,84.61
2022-10-12T04:33:28.253Z,84.96
2022-10-12T04:35:54.865Z,85.08
2022-10-12T04:38:21.576Z,84.92
2022-10-12T04:40:48.662Z,85.10
2022-10-12T04:43:16.036Z,85.02
2022-10-12T04:45:42.762Z,85.18
2022-10-12T04:48:09.460Z,85.01
2022-10-12T04:50:36.229Z,85.24
2022-10-12T04:53:02.912Z,85.33
2022-10-12T04:55:29.550Z,85.49
2022-10-12T04:57:56.360Z,85.51
2022-10-12T05:00:23.024Z,85.93
2022-10-12T05:02:49.750Z,86.06
2022-10-12T05:05:16.422Z,86.46
2022-10-12T05:07:43.163Z,86.52
2022-10-12T05:10:10.016Z,86.81
2022-10-12T05:12:36.967Z,87.14
2022-10-12T05:15:04.232Z,87.23
2022-10-12T05:17:30.999Z,87.38
2022-10-12T05:19:57.671Z,87.77
2022-10-12T05:22:24.370Z,87.81
2022-10-12T05:24:53.795Z,87.96
2022-10-12T05:27:21.106Z,88.34
2022-10-12T05:29:47.852Z,88.51
2022-10-12T05:32:14.611Z,88.64
2022-10-12T05:34:42.383Z,88.75
2022-10-12T05:37:09.234Z,88.92
2022-10-12T05:39:37.259Z,88.91
2022-10-12T05:42:04.043Z,89.02
2022-10-12T05:44:30.729Z,89.38
2022-10-12T05:46:57.457Z,89.31
2022-10-12T05:49:24.142Z,89.54
2022-10-12T05:51:50.875Z,89.41
2022-10-12T05:54:17.475Z,89.91
2022-10-12T05:56:44.131Z,90.04
2022-10-12T05:59:11.621Z,90.08
2022-10-12T06:01:38.426Z,90.28
2022-10-12T06:04:06.220Z,90.45
2022-10-12T06:06:32.961Z,90.36
2022-10-12T06:08:59.710Z,90.50
2022-10-12T06:11:26.375Z,90.36
2022-10-12T06:13:54.329Z,90.62
2022-10-12T06:16:21.152Z,90.75
2022-10-12T06:18:47.748Z,90.77
2022-10-12T06:21:32.906Z,90.77
2022-10-12T06:24:00.168Z,90.57
2022-10-12T06:26:26.891Z,90.57
2022-10-12T06:28:53.627Z,90.55
2022-10-12T06:31:20.751Z,90.73
2022-10-12T06:33:47.636Z,90.69
2022-10-12T06:36:14.354Z,90.70
2022-10-12T06:38:41.097Z,90.45
2022-10-12T06:41:07.705Z,90.04
2022-10-12T06:43:34.467Z,90.04
2022-10-12T06:46:01.849Z,89.99
2022-10-12T06:48:28.689Z,89.70
2022-10-12T06:50:58.457Z,89.79
2022-10-12T06:53:28.604Z,89.73
2022-10-12T06:55:55.322Z,89.57
2022-10-12T06:58:22.001Z,89.64
2022-10-12T07:00:48.943Z,89.40
2022-10-12T07:03:16.617Z,89.18
2022-10-12T07:05:43.434Z,89.21
2022-10-12T07:08:10.055Z,88.80
2022-10-12T07:10:38.075Z,88.65
2022-10-12T07:13:04.802Z,88.50
2022-10-12T07:15:31.461Z,88.43
2022-10-12T07:17:58.211Z,87.93
2022-10-12T07:20:24.884Z,87.88
2022-10-12T07:22:52.857Z,87.82
2022-10-12T07:25:19.540Z,87.93
2022-10-12T07:27:49.404Z,87.84
2022-10-12T07:30:16.269Z,87.75
2022-10-12T07:32:44.542Z,87.68
2022-10-12T07:35:11.337Z,87.42
2022-10-12T07:37:38.256Z,86.76
2022-10-12T07:40:05.756Z,86.75
2022-10-12T07:42:32.490Z,86.41
2022-10-12T07:44:59.137Z,85.88
2022-10-12T07:47:25.849Z,85.63
2022-10-12T07:49:52.457Z,85.50
2022-10-12T07:52:19.171Z,85.30
2022-10-12T07:54:45.968Z,84.95
2022-10-12T07:57:12.684Z,84.72
2022-10-12T07:59:39.338Z,84.38
2022-10-12T08:02:06.104Z,83.97
2022-10-12T08:04:32.887Z,84.07
2022-10-12T08:06:59.673Z,83.93
2022-10-12T08:09:26.411Z,83.76
2022-10-12T08:11:53.038Z,83.28
2022-10-12T08:14:19.782Z,82.85
2022-10-12T08:16:46.468Z,81.87
2022-10-12T08:19:13.457Z,81.27
2022-10-12T08:21:41.313Z,81.25
2022-10-12T08:24:09.097Z,80.92
2022-10-12T08:26:36.418Z,80.59
2022-10-12T08:29:03.758Z,80.14
2022-10-12T08:31:30.492Z,79.72
2022-10-12T08:33:57.574Z,78.94
2022-10-12T08:36:24.497Z,78.41
2022-10-12T08:38:54.068Z,77.95
2022-10-12T08:41:48.364Z,77.30
2022-10-12T08:44:52.651Z,76.27
2022-10-12T08:47:30.548Z,76.43
2022-10-12T08:49:57.232Z,76.34
2022-10-12T08:52:29.039Z,75.69
2022-10-12T08:54:59.059Z,75.12
2022-10-12T08:57:25.742Z,74.38
2022-10-12T08:59:52.456Z,73.71
2022-10-12T09:02:38.466Z,72.15
2022-10-12T09:05:09.866Z,71.14
2022-10-12T09:07:46.447Z,70.75
2022-10-12T09:10:27.878Z,70.78
2022-10-12T09:13:00.163Z,70.92
2022-10-12T09:15:32.631Z,70.73
2022-10-12T09:18:00.461Z,70.13
2022-10-12T09:20:44.270Z,69.62
2022-10-12T09:23:27.953Z,68.42
2022-10-12T09:25:58.536Z,68.61
2022-10-12T09:28:40.139Z,68.50
2022-10-12T09:31:10.043Z,67.70
2022-10-12T09:33:42.148Z,66.76
2022-10-12T09:36:10.168Z,65.97
2022-10-12T09:38:38.188Z,65.78
2022-10-12T09:41:05.159Z,65.51
2022-10-12T09:43:31.896Z,64.59
2022-10-12T09:46:00.072Z,64.21
2022-10-12T09:48:26.793Z,63.74
2022-10-12T09:51:01.475Z,63.48
2022-10-12T09:53:36.210Z,63.20
2022-10-12T09:56:04.982Z,63.30
2022-10-12T09:58:39.642Z,63.11
2022-10-12T10:01:25.429Z,62.14
2022-10-12T10:04:14.736Z,61.08
2022-10-12T10:06:43.788Z,60.66
2022-10-12T10:09:32.956Z,60.39
2022-10-12T10:12:24.215Z,60.19
2022-10-12T10:14:51.753Z,59.58
2022-10-12T10:17:24.697Z,59.16
2022-10-12T10:19:51.929Z,58.75
2022-10-12T10:22:19.531Z,58.37
2022-10-12T10:24:50.768Z,57.59
2022-10-12T10:27:30.063Z,56.42
2022-10-12T10:30:29.730Z,56.03
2022-10-12T10:33:13.550Z,55.37
2022-10-12T10:35:40.275Z,55.20
2022-10-12T10:38:09.253Z,55.29
2022-10-12T10:40:36.027Z,55.07
2022-10-12T10:43:05.338Z,55.71
2022-10-12T10:45:52.303Z,55.28
2022-10-12T10:48:24.134Z,54.87
2022-10-12T10:51:02.507Z,55.01
2022-10-12T10:53:46.811Z,55.08
2022-10-12T10:56:21.910Z,55.22
2022-10-12T10:58:56.312Z,55.67
2022-10-12T11:01:56.220Z,55.60
2022-10-12T11:04:29.402Z,55.77
2022-10-12T11:06:58.210Z,56.16
2022-10-12T11:09:32.396Z,56.06
2022-10-12T11:12:14.636Z,55.87
2022-10-12T11:14:52.495Z,55.61
2022-10-12T11:17:25.068Z,55.37
2022-10-12T11:20:01.008Z,55.23
2022-10-12T11:22:36.928Z,55.18
2022-10-12T11:25:14.673Z,55.30
2022-10-12T11:27:42.803Z,55.54
2022-10-12T11:30:17.052Z,55.50
2022-10-12T11:32:49.502Z,55.19
2022-10-12T11:35:27.634Z,54.94
2022-10-12T11:37:58.146Z,54.98
2022-10-12T11:43:22.656Z,55.19
2022-10-12T11:45:51.602Z,55.61
2022-10-12T11:48:30.141Z,55.49
2022-10-12T11:51:00.086Z,55.45
2022-10-12T11:53:33.431Z,54.60
2022-10-12T11:56:09.440Z,54.72
2022-10-12T11:58:59.274Z,54.45
2022-10-12T12:01:39.517Z,54.55
2022-10-12T12:04:40.545Z,54.24
2022-10-12T12:07:06.813Z,53.69
2022-10-12T12:09:37.603Z,53.36
2022-10-12T12:12:18.052Z,52.90
2022-10-12T12:14:51.333Z,53.19
2022-10-12T12:17:31.563Z,53.10
2022-10-12T12:20:00.412Z,53.11
2022-10-12T12:22:27.168Z,52.74
2022-10-12T12:24:58.275Z,52.74
2022-10-12T12:27:48.200Z,53.18
2022-10-12T12:30:14.950Z,52.96
2022-10-12T12:32:47.479Z,53.25
2022-10-12T12:35:23.266Z,53.74
2022-10-12T12:37:50.294Z,53.49
2022-10-12T12:40:23.239Z,52.45
2022-10-12T12:42:50.003Z,52.30
2022-10-12T12:45:39.102Z,52.52
2022-10-12T12:48:09.416Z,53.08
2022-10-12T12:50:37.415Z,53.01
2022-10-12T12:53:14.311Z,52.43
2022-10-12T12:55:45.916Z,52.87
2022-10-12T12:58:50.782Z,52.82
2022-10-12T13:01:32.793Z,52.81
2022-10-12T13:04:20.759Z,52.39
2022-10-12T13:07:25.962Z,51.82
2022-10-12T13:10:01.813Z,51.51
2022-10-12T13:12:58.872Z,51.66
2022-10-12T13:15:46.084Z,52.04
2022-10-12T13:18:45.386Z,51.92
2022-10-12T13:21:06.871Z,51.36
2022-10-12T13:23:33.691Z,50.51
2022-10-12T13:26:08.929Z,50.68
2022-10-12T13:28:39.291Z,50.84
2022-10-12T13:31:09.581Z,51.00
2022-10-12T13:33:54.567Z,51.51
2022-10-12T13:36:26.087Z,51.67
2022-10-12T13:38:57.345Z,51.35
2022-10-12T13:41:25.581Z,51.02
2022-10-12T13:43:53.445Z,50.43
2022-10-12T13:46:46.134Z,50.18
2022-10-12T13:49:30.177Z,50.59
2022-10-12T13:52:40.171Z,50.55
2022-10-12T13:55:17.889Z,50.61
2022-10-12T13:57:50.139Z,50.48
2022-10-12T14:00:19.447Z,50.73
2022-10-12T14:03:02.991Z,50.65
2022-10-12T14:05:31.276Z,51.07
2022-10-12T14:08:19.614Z,51.28
2022-10-12T14:10:46.348Z,51.34
2022-10-12T14:13:22.593Z,51.52
2022-10-12T14:15:49.303Z,51.96
2022-10-12T14:18:35.761Z,52.20
2022-10-12T14:21:26.818Z,52.36
2022-10-12T14:23:58.011Z,52.71
2022-10-12T14:26:34.997Z,52.99
2022-10-12T14:29:44.592Z,53.14
2022-10-12T14:32:11.287Z,53.24
2022-10-12T14:34:39.203Z,53.38
2022-10-12T14:37:08.809Z,53.68
2022-10-12T14:39:35.952Z,53.85
2022-10-12T14:42:04.668Z,54.13
2022-10-12T14:44:42.044Z,54.20
2022-10-12T14:47:25.028Z,54.34
2022-10-12T14:49:53.513Z,54.41
2022-10-12T14:52:23.004Z,54.37
2022-10-12T14:54:51.680Z,54.49
2022-10-12T14:57:18.909Z,54.44
2022-10-12T14:59:46.324Z,54.36
2022-10-12T15:02:20.390Z,54.41
2022-10-12T15:04:47.173Z,54.53
2022-10-12T15:07:18.135Z,54.69
2022-10-12T15:09:45.155Z,54.92
2022-10-12T15:12:15.662Z,54.96
2022-10-12T15:14:42.563Z,55.23
2022-10-12T15:17:11.672Z,55.57
2022-10-12T15:19:38.643Z,55.67
2022-10-12T15:22:05.305Z,55.79
2022-10-12T15:24:32.056Z,56.10
2022-10-12T15:26:58.682Z,56.09
2022-10-12T15:29:25.363Z,56.43
2022-10-12T15:31:52.949Z,56.50
2022-10-12T15:34:19.774Z,56.82
2022-10-12T15:36:46.517Z,57.02
2022-10-12T15:39:13.104Z,57.14
2022-10-12T15:41:39.790Z,57.11
2022-10-12T15:44:06.376Z,57.42
2022-10-12T15:46:33.031Z,57.69
2022-10-12T15:48:59.726Z,58.30
2022-10-12T15:51:26.355Z,58.77
2022-10-12T15:53:53.316Z,59.51
2022-10-12T15:56:20.260Z,60.15
2022-10-12T15:58:47.134Z,60.85
2022-10-12T16:01:14.831Z,61.24
2022-10-12T16:03:41.737Z,62.06
2022-10-12T16:06:08.750Z,62.43
2022-10-12T16:08:35.580Z,62.78
2022-10-12T16:11:02.802Z,63.39
2022-10-12T16:13:29.588Z,63.89
2022-10-12T16:15:56.370Z,64.26
2022-10-12T16:18:23.110Z,64.91
2022-10-12T16:20:53.562Z,65.27
2022-10-12T16:23:23.798Z,65.95
2022-10-12T16:28:22.400Z,66.89
2022-10-12T16:30:50.006Z,67.42
2022-10-12T16:33:16.954Z,67.85
2022-10-12T16:35:43.710Z,68.37
2022-10-12T16:38:10.424Z,68.84
2022-10-12T16:40:41.432Z,69.29
2022-10-12T16:43:08.466Z,69.87
2022-10-12T16:45:35.153Z,70.12
2022-10-12T16:48:01.947Z,70.41
2022-10-12T16:50:28.538Z,70.65
2022-10-12T16:52:55.277Z,70.93
2022-10-12T16:55:21.964Z,71.20
2022-10-12T16:57:48.643Z,71.36
2022-10-12T17:00:16.937Z,71.55
2022-10-12T17:02:43.649Z,71.78
2022-10-12T17:05:10.374Z,72.09
2022-10-12T17:07:37.004Z,72.32
2022-10-12T17:10:04.119Z,72.43
2022-10-12T17:12:30.803Z,72.55
2022-10-12T17:14:57.910Z,72.80
2022-10-12T17:17:24.580Z,73.03
2022-10-12T17:19:51.358Z,73.09
2022-10-12T17:22:18.431Z,73.40
2022-10-12T17:24:45.335Z,73.55
2022-10-12T17:27:12.511Z,73.68
2022-10-12T17:29:42.091Z,74.05
2022-10-12T17:32:09.878Z,74.31
2022-10-12T17:34:41.248Z,74.49
2022-10-12T17:37:11.265Z,74.72
2022-10-12T17:39:40.105Z,74.97
2022-10-12T17:42:06.944Z,74.80
2022-10-12T17:44:33.793Z,74.92
2022-10-12T17:47:00.563Z,75.13
2022-10-12T17:49:27.381Z,75.11
2022-10-12T17:51:54.116Z,75.17
2022-10-12T17:54:21.424Z,75.40
2022-10-12T17:56:48.090Z,75.25
2022-10-12T17:59:16.033Z,75.27
2022-10-12T18:01:42.711Z,75.64
2022-10-12T18:04:10.170Z,75.73
2022-10-12T18:06:36.833Z,75.90
2022-10-12T18:09:04.697Z,76.06
2022-10-12T18:11:31.425Z,76.18
2022-10-12T18:13:58.127Z,75.99
2022-10-12T18:16:29.957Z,76.33
2022-10-12T18:18:58.234Z,76.18
2022-10-12T18:21:26.114Z,76.30
2022-10-12T18:23:52.877Z,76.46
2022-10-12T18:26:21.782Z,76.32
2022-10-12T18:28:49.736Z,76.71
2022-10-12T18:31:24.316Z,76.67
2022-10-12T18:33:51.536Z,76.87
2022-10-12T18:36:18.404Z,77.07
2022-10-12T18:38:45.324Z,77.40
2022-10-12T18:41:15.383Z,77.56
2022-10-12T18:43:42.115Z,77.53
2022-10-12T18:46:10.272Z,77.80
2022-10-12T18:48:37.048Z,77.77
2022-10-12T18:51:25.140Z,77.58
2022-10-12T18:53:51.901Z,77.51
2022-10-12T18:56:18.991Z,77.67
2022-10-12T18:58:45.750Z,77.67
2022-10-12T19:01:18.041Z,77.82
2022-10-12T19:03:44.855Z,77.91
2022-10-12T19:06:13.357Z,77.84
2022-10-12T19:08:40.426Z,77.78
2022-10-12T19:11:08.238Z,77.84
2022-10-12T19:13:38.766Z,77.77
2022-10-12T19:16:07.524Z,77.83
2022-10-12T19:18:34.317Z,77.93
2022-10-12T19:21:05.507Z,77.92
2022-10-12T19:23:32.216Z,78.07
2022-10-12T19:26:04.298Z,77.93
2022-10-12T19:28:31.000Z,78.01
2022-10-12T19:30:58.738Z,78.26
2022-10-12T19:33:26.772Z,78.26
2022-10-12T19:35:53.523Z,78.40
2022-10-12T19:38:20.506Z,78.33
2022-10-12T19:40:47.321Z,78.62
2022-10-12T19:43:13.980Z,78.43
2022-10-12T19:45:41.014Z,78.69
2022-10-12T19:48:07.924Z,78.85
2022-10-12T19:50:34.621Z,78.98
2022-10-12T19:53:01.561Z,78.93
2022-10-12T19:55:29.988Z,78.92
2022-10-12T19:57:56.720Z,79.07
2022-10-12T20:00:23.648Z,79.47
2022-10-12T20:02:50.312Z,79.33
2022-10-12T20:05:17.006Z,79.19
2022-10-12T20:07:43.720Z,79.73
2022-10-12T20:10:10.394Z,79.70
2022-10-12T20:12:37.126Z,79.66
2022-10-12T20:15:04.189Z,80.02
2022-10-12T20:17:30.899Z,80.04
2022-10-12T20:19:57.656Z,79.97
2022-10-12T20:22:24.317Z,80.00
2022-10-12T20:24:53.811Z,79.91
2022-10-12T20:27:20.502Z,79.97
2022-10-12T20:29:47.395Z,79.86
2022-10-12T20:32:14.059Z,80.14
2022-10-12T20:34:40.737Z,80.03
2022-10-12T20:37:07.432Z,80.26
2022-10-12T20:39:34.098Z,80.04
2022-10-12T20:42:00.771Z,80.10
2022-10-12T20:44:27.632Z,80.01
2022-10-12T20:46:55.047Z,80.33
2022-10-12T20:49:21.809Z,80.47
2022-10-12T20:51:48.573Z,80.32
2022-10-12T20:54:16.247Z,80.70
2022-10-12T20:56:43.379Z,80.65
2022-10-12T20:59:10.490Z,80.47
2022-10-12T21:01:37.299Z,80.59
2022-10-12T21:04:03.913Z,80.72
2022-10-12T21:06:30.607Z,80.81
2022-10-12T21:08:57.437Z,80.75
2022-10-12T21:11:24.063Z,80.71
2022-10-12T21:13:50.966Z,80.68
2022-10-12T21:16:17.712Z,80.83
2022-10-12T21:18:44.438Z,80.59
2022-10-12T21:21:16.207Z,80.86
2022-10-12T21:23:54.134Z,80.70
2022-10-12T21:26:21.665Z,80.73
2022-10-12T21:28:48.392Z,80.85
2022-10-12T21:31:15.211Z,80.98
2022-10-12T21:33:41.860Z,80.87
2022-10-12T21:36:13.534Z,81.14
2022-10-12T21:38:40.489Z,81.13
2022-10-12T21:41:07.676Z,81.12
2022-10-12T21:43:35.369Z,81.00
2022-10-12T21:46:10.175Z,81.25
2022-10-12T21:48:37.086Z,81.16
2022-10-12T21:51:03.814Z,81.51
2022-10-12T21:53:30.674Z,81.18
2022-10-12T21:55:57.259Z,81.10
2022-10-12T21:58:24.040Z,81.22
2022-10-12T22:00:51.041Z,81.34
2022-10-12T22:03:17.712Z,81.59
2022-10-12T22:05:44.517Z,81.18
2022-10-12T22:08:11.196Z,81.23
2022-10-12T22:10:38.989Z,81.41
2022-10-12T22:13:06.450Z,81.51
2022-10-12T22:15:33.626Z,81.41
2022-10-12T22:18:05.055Z,81.17
2022-10-12T22:20:31.720Z,81.09
2022-10-12T22:22:58.549Z,81.49
2022-10-12T22:25:25.293Z,81.02
2022-10-12T22:27:52.073Z,80.91
2022-10-12T22:30:18.884Z,81.03
2022-10-12T22:32:45.649Z,80.51
2022-10-12T22:35:12.448Z,80.58
2022-10-12T22:37:41.684Z,80.60
2022-10-12T22:40:08.636Z,80.80
2022-10-12T22:42:35.425Z,80.73
2022-10-12T22:45:02.199Z,80.67
2022-10-12T22:47:29.031Z,80.79
2022-10-12T22:49:56.130Z,81.06
2022-10-12T22:52:22.955Z,80.93
2022-10-12T22:54:49.994Z,80.88
2022-10-12T22:57:16.833Z,80.82
2022-10-12T22:59:43.473Z,80.95
2022-10-12T23:02:10.339Z,81.10
2022-10-12T23:04:37.078Z,81.21
2022-10-12T23:07:03.996Z,81.63
2022-10-12T23:09:30.659Z,81.57
2022-10-12T23:11:57.431Z,81.71
2022-10-12T23:14:24.178Z,81.76
2022-10-12T23:16:50.909Z,81.76
2022-10-12T23:19:17.585Z,81.89
2022-10-12T23:21:44.246Z,81.70
2022-10-12T23:24:10.909Z,81.82
2022-10-12T23:26:37.611Z,81.55
2022-10-12T23:29:04.297Z,81.62
2022-10-12T23:31:31.043Z,81.63
2022-10-12T23:33:58.931Z,81.45
2022-10-12T23:36:25.684Z,81.74
2022-10-12T23:38:52.354Z,81.93
2022-10-12T23:41:19.103Z,81.81
2022-10-12T23:43:45.740Z,81.92
2022-10-12T23:46:12.633Z,81.87
2022-10-12T23:48:39.274Z,82.13
2022-10-12T23:51:07.919Z,81.88
2022-10-12T23:53:35.190Z,82.55
2022-10-12T23:56:01.902Z,82.13
2022-10-12T23:58:28.587Z,82.16
